Time;durP1;ratioP1;P1;durP2;ratioP2;P2;SDS_P1;SDS_P2;PMS_P1;PMS_P2;Temp;Humidity;BMP_temperature;BMP_pressure;BME280_temperature;BME280_humidity;BME280_pressure;Samples;Min_cycle;Max_cycle;Signal;HPM_P1;HPM_P2
2021/08/04 00:02:00;;;;;;;;;;;;;;;;;;2141050;59;17977;-71
2021/08/04 00:04:26;;;;;;;;;;;;;;;;;;2140020;59;15084;-71
2021/08/04 00:06:53;;;;;;;;;;;;;;;;;;2139479;59;14898;-70
2021/08/04 00:09:19;;;;;;;;;;;;;;;;;;2141492;67;14424;-68
2021/08/04 00:11:47;;;;;;;;;;;;;;;;;;2138412;59;16933;-69
2021/08/04 00:14:14;;;;;;;;;;;;;;;;;;2138514;59;14401;-69
2021/08/04 00:16:40;;;;;;;;;;;;;;;;;;2141369;59;14646;-71
2021/08/04 00:19:07;;;;;;;;;;;;;;;;;;2143106;59;15938;-69
2021/08/04 00:21:33;;;;;;;;;;;;;;;;;;2141279;59;14933;-70
2021/08/04 00:24:00;;;;;;;;;;;;;;;;;;2140326;59;14177;-69
2021/08/04 00:26:26;;;;;;;;;;;;;;;;;;2140126;67;15576;-70
2021/08/04 00:28:54;;;;;;;;;;;;;;;;;;2141236;59;13309;-71
2021/08/04 00:31:21;;;;;;;;;;;;;;;;;;2140285;67;15790;-71
2021/08/04 00:33:47;;;;;;;;;;;;;;;;;;2139546;59;14629;-70
2021/08/04 00:36:13;;;;;;;;;;;;;;;;;;2141777;67;18339;-70
2021/08/04 00:38:40;;;;;;;;;;;;;;;;;;2139935;67;13562;-70
2021/08/04 00:41:06;;;;;;;;;;;;;;;;;;2141326;67;14793;-70
2021/08/04 00:43:33;;;;;;;;;;;;;;;;;;2141233;64;15403;-71
2021/08/04 00:46:01;;;;;;;;;;;;;;;;;;2140834;59;14029;-71
2021/08/04 00:48:28;;;;;;;;;;;;;;;;;;2140985;67;14253;-71
2021/08/04 00:50:54;;;;;;;;;;;;;;;;;;2141284;66;14817;-71
2021/08/04 00:53:21;;;;;;;;;;;;;;;;;;2140117;59;16101;-70
2021/08/04 00:55:48;;;;;;;;;;;;;;;;;;2140454;67;14176;-70
2021/08/04 00:58:15;;;;;;;;;;;;;;;;;;2141878;67;13640;-69
2021/08/04 01:00:42;;;;;;;;;;;;;;;;;;2141760;59;14325;-70
2021/08/04 01:03:15;;;;;;;;;;;;;;;;;;2139391;59;14325;-71
2021/08/04 01:05:44;;;;;;;;;;;;;;;;;;2139265;59;14931;-70
2021/08/04 01:08:14;;;;;;;;;;;;;;;;;;2139793;67;16715;-69
2021/08/04 01:10:41;;;;;;;;;;;;;;;;;;2139076;59;17780;-70
2021/08/04 01:13:13;;;;;;;;;;;;;;;;;;2139772;67;19242;-70
2021/08/04 01:15:44;;;;;;;;;;;;;;;;;;2139047;67;14102;-70
2021/08/04 01:18:14;;;;;;;;;;;;;;;;;;2142733;59;14410;-71
2021/08/04 01:20:40;;;;;;;;;;;;;;;;;;2141876;59;14315;-70
2021/08/04 01:23:18;;;;;;;;;;;;;;;;;;2141428;67;13944;-71
2021/08/04 01:25:50;;;;;;;;;;;;;;;;;;2139928;59;14400;-71
2021/08/04 01:28:23;;;;;;;;;;;;;;;;;;2139622;59;14230;-68
2021/08/04 01:30:50;;;;;;;;;;;;;;;;;;2139371;59;14099;-71
2021/08/04 01:33:18;;;;;;;;;;;;;;;;;;2139133;67;17467;-71
2021/08/04 01:35:44;;;;;;;;;;;;;;;;;;2138676;59;17973;-70
2021/08/04 01:38:13;;;;;;;;;;;;;;;;;;2139688;59;16846;-71
2021/08/04 01:40:40;;;;;;;;;;;;;;;;;;2139536;67;14861;-71
2021/08/04 01:43:08;;;;;;;;;;;;;;;;;;2138936;64;16222;-71
2021/08/04 01:45:37;;;;;;;;;;;;;;;;;;2139193;67;14453;-69
2021/08/04 01:48:04;;;;;;;;;;;;;;;;;;2138572;59;14290;-71
2021/08/04 01:50:30;;;;;;;;;;;;;;;;;;2142359;66;14574;-71
2021/08/04 01:52:57;;;;;;;;;;;;;;;;;;2139994;67;14534;-69
2021/08/04 01:55:24;;;;;;;;;;;;;;;;;;2140967;67;14947;-71
2021/08/04 01:57:50;;;;;;;;;;;;;;;;;;2140492;59;14934;-70
2021/08/04 02:00:17;;;;;;;;;;;;;;;;;;2141782;67;14898;-69
2021/08/04 02:02:45;;;;;;;;;;;;;;;;;;2140249;59;15370;-70
2021/08/04 02:05:11;;;;;;;;;;;;;;;;;;2140315;59;14285;-68
2021/08/04 02:07:48;;;;;;;;;;;;;;;;;;2140866;59;14203;-69
2021/08/04 02:10:19;;;;;;;;;;;;;;;;;;2139033;59;16037;-70
2021/08/04 02:12:50;;;;;;;;;;;;;;;;;;2139003;67;14976;-69
2021/08/04 02:15:18;;;;;;;;;;;;;;;;;;2139743;67;16708;-70
2021/08/04 02:17:47;;;;;;;;;;;;;;;;;;2139577;64;14318;-70
2021/08/04 02:20:18;;;;;;;;;;;;;;;;;;2142823;59;13945;-71
2021/08/04 02:22:48;;;;;;;;;;;;;;;;;;2141393;59;14551;-70
2021/08/04 02:25:15;;;;;;;;;;;;;;;;;;2141244;59;15408;-70
2021/08/04 02:27:43;;;;;;;;;;;;;;;;;;2140584;59;14405;-71
2021/08/04 02:30:10;;;;;;;;;;;;;;;;;;2141651;67;14406;-69
2021/08/04 02:32:37;;;;;;;;;;;;;;;;;;2141361;67;14672;-70
2021/08/04 02:35:06;;;;;;;;;;;;;;;;;;2141392;59;15162;-70
2021/08/04 02:37:32;;;;;;;;;;;;;;;;;;2140844;67;13882;-70
2021/08/04 02:39:59;;;;;;;;;;;;;;;;;;2140615;59;15688;-71
2021/08/04 02:42:26;;;;;;;;;;;;;;;;;;2141548;59;14612;-70
2021/08/04 02:44:52;;;;;;;;;;;;;;;;;;2141265;67;14022;-69
2021/08/04 02:47:20;;;;;;;;;;;;;;;;;;2141054;67;14088;-71
2021/08/04 02:49:47;;;;;;;;;;;;;;;;;;2141039;64;15404;-69
2021/08/04 02:52:17;;;;;;;;;;;;;;;;;;2140288;59;13886;-69
2021/08/04 02:54:44;;;;;;;;;;;;;;;;;;2141179;67;14134;-71
2021/08/04 02:57:11;;;;;;;;;;;;;;;;;;2141109;67;13944;-70
2021/08/04 02:59:37;;;;;;;;;;;;;;;;;;2140665;64;14455;-68
2021/08/04 03:02:04;;;;;;;;;;;;;;;;;;2140346;59;14222;-70
2021/08/04 03:04:30;;;;;;;;;;;;;;;;;;2139641;59;17638;-70
2021/08/04 03:06:57;;;;;;;;;;;;;;;;;;2138831;67;21929;-70
2021/08/04 03:09:25;;;;;;;;;;;;;;;;;;2139615;66;14078;-70
2021/08/04 03:11:51;;;;;;;;;;;;;;;;;;2138642;59;15898;-69
2021/08/04 03:14:18;;;;;;;;;;;;;;;;;;2139962;59;14482;-70
2021/08/04 03:16:44;;;;;;;;;;;;;;;;;;2140506;59;14594;-70
2021/08/04 03:19:11;;;;;;;;;;;;;;;;;;2141745;59;17903;-70
2021/08/04 03:21:38;;;;;;;;;;;;;;;;;;2140784;67;13549;-69
2021/08/04 03:24:05;;;;;;;;;;;;;;;;;;2140507;59;14854;-70
2021/08/04 03:26:33;;;;;;;;;;;;;;;;;;2140049;67;17337;-70
2021/08/04 03:28:59;;;;;;;;;;;;;;;;;;2139441;67;17217;-71
2021/08/04 03:31:26;;;;;;;;;;;;;;;;;;2139951;67;16593;-70
2021/08/04 03:33:52;;;;;;;;;;;;;;;;;;2140933;59;14390;-70
2021/08/04 03:36:19;;;;;;;;;;;;;;;;;;2141970;59;14819;-69
2021/08/04 03:38:45;;;;;;;;;;;;;;;;;;2141807;67;14553;-70
2021/08/04 03:41:12;;;;;;;;;;;;;;;;;;2141511;59;15311;-70
2021/08/04 03:43:39;;;;;;;;;;;;;;;;;;2141004;67;14586;-69
2021/08/04 03:46:06;;;;;;;;;;;;;;;;;;2142156;59;14163;-70
2021/08/04 03:48:32;;;;;;;;;;;;;;;;;;2141623;67;13650;-70
2021/08/04 03:50:59;;;;;;;;;;;;;;;;;;2138530;59;16004;-70
2021/08/04 03:53:25;;;;;;;;;;;;;;;;;;2141321;59;17778;-70
2021/08/04 03:55:52;;;;;;;;;;;;;;;;;;2140757;63;14324;-70
2021/08/04 03:58:18;;;;;;;;;;;;;;;;;;2142048;67;14859;-71
2021/08/04 04:00:46;;;;;;;;;;;;;;;;;;2141554;59;14073;-70
2021/08/04 04:03:13;;;;;;;;;;;;;;;;;;2139547;67;13940;-69
2021/08/04 04:05:39;;;;;;;;;;;;;;;;;;2139344;59;15397;-70
2021/08/04 04:08:06;;;;;;;;;;;;;;;;;;2140129;64;13955;-69
2021/08/04 04:10:33;;;;;;;;;;;;;;;;;;2139860;59;13886;-68
2021/08/04 04:12:59;;;;;;;;;;;;;;;;;;2139517;67;13713;-70
2021/08/04 04:15:26;;;;;;;;;;;;;;;;;;2140583;59;14204;-69
2021/08/04 04:17:53;;;;;;;;;;;;;;;;;;2140031;59;14290;-70
2021/08/04 04:20:20;;;;;;;;;;;;;;;;;;2141671;59;18581;-70
2021/08/04 04:22:46;;;;;;;;;;;;;;;;;;2141221;59;13995;-69
2021/08/04 04:25:14;;;;;;;;;;;;;;;;;;2140783;59;15118;-69
2021/08/04 04:27:41;;;;;;;;;;;;;;;;;;2139500;59;14054;-69
2021/08/04 04:30:08;;;;;;;;;;;;;;;;;;2139593;67;14106;-69
2021/08/04 04:32:34;;;;;;;;;;;;;;;;;;2141126;59;14531;-70
2021/08/04 04:35:02;;;;;;;;;;;;;;;;;;2139241;59;13835;-69
2021/08/04 04:37:29;;;;;;;;;;;;;;;;;;2139827;67;14839;-70
2021/08/04 04:39:55;;;;;;;;;;;;;;;;;;2138710;59;13862;-69
2021/08/04 04:42:22;;;;;;;;;;;;;;;;;;2140011;67;14958;-70
2021/08/04 04:44:48;;;;;;;;;;;;;;;;;;2139756;63;13604;-69
2021/08/04 04:47:15;;;;;;;;;;;;;;;;;;2139449;67;13798;-69
2021/08/04 04:49:41;;;;;;;;;;;;;;;;;;2141257;59;20182;-70
2021/08/04 04:52:10;;;;;;;;;;;;;;;;;;2140220;59;14398;-70
2021/08/04 04:54:36;;;;;;;;;;;;;;;;;;2141607;67;22882;-70
2021/08/04 04:57:03;;;;;;;;;;;;;;;;;;2141410;67;15641;-68
2021/08/04 04:59:29;;;;;;;;;;;;;;;;;;2141170;59;15724;-69
2021/08/04 05:01:55;;;;;;;;;;;;;;;;;;2139352;59;17490;-70
2021/08/04 05:04:22;;;;;;;;;;;;;;;;;;2140239;67;21406;-69
2021/08/04 05:06:48;;;;;;;;;;;;;;;;;;2141395;63;14412;-70
2021/08/04 05:09:17;;;;;;;;;;;;;;;;;;2141251;67;20968;-69
2021/08/04 05:11:43;;;;;;;;;;;;;;;;;;2138441;59;15085;-69
2021/08/04 05:14:10;;;;;;;;;;;;;;;;;;2140196;67;14601;-69
2021/08/04 05:16:36;;;;;;;;;;;;;;;;;;2140930;64;15879;-70
2021/08/04 05:19:03;;;;;;;;;;;;;;;;;;2141685;66;13342;-69
2021/08/04 05:21:29;;;;;;;;;;;;;;;;;;2141107;67;14904;-69
2021/08/04 05:23:55;;;;;;;;;;;;;;;;;;2140701;59;15538;-69
2021/08/04 05:26:23;;;;;;;;;;;;;;;;;;2137064;67;13025;-69
2021/08/04 05:28:51;;;;;;;;;;;;;;;;;;2139951;67;13640;-68
2021/08/04 05:31:17;;;;;;;;;;;;;;;;;;2138846;67;14842;-70
2021/08/04 05:33:44;;;;;;;;;;;;;;;;;;2139190;59;15310;-70
2021/08/04 05:36:10;;;;;;;;;;;;;;;;;;2139482;59;15159;-69
2021/08/04 05:38:36;;;;;;;;;;;;;;;;;;2140219;67;13592;-70
2021/08/04 05:41:03;;;;;;;;;;;;;;;;;;2138969;67;14512;-70
2021/08/04 05:43:31;;;;;;;;;;;;;;;;;;2139055;59;13783;-69
2021/08/04 05:45:57;;;;;;;;;;;;;;;;;;2138851;59;14572;-70
2021/08/04 05:48:24;;;;;;;;;;;;;;;;;;2139343;67;19416;-69
2021/08/04 05:50:50;;;;;;;;;;;;;;;;;;2140453;59;13402;-70
2021/08/04 05:53:17;;;;;;;;;;;;;;;;;;2141050;59;13700;-69
2021/08/04 05:55:44;;;;;;;;;;;;;;;;;;2140451;64;15074;-70
2021/08/04 05:58:10;;;;;;;;;;;;;;;;;;2141625;59;15137;-69
2021/08/04 06:00:38;;;;;;;;;;;;;;;;;;2141534;59;14228;-70
2021/08/04 06:03:04;;;;;;;;;;;;;;;;;;2139502;59;14947;-69
2021/08/04 06:05:31;;;;;;;;;;;;;;;;;;2139382;67;17907;-68
2021/08/04 06:07:58;;;;;;;;;;;;;;;;;;2139364;59;14141;-69
2021/08/04 06:10:24;;;;;;;;;;;;;;;;;;2139687;59;31870;-69
2021/08/04 06:12:51;;;;;;;;;;;;;;;;;;2140101;67;16410;-69
2021/08/04 06:15:17;;;;;;;;;;;;;;;;;;2139119;59;19813;-69
2021/08/04 06:17:45;;;;;;;;;;;;;;;;;;2141993;67;14210;-69
2021/08/04 06:20:12;;;;;;;;;;;;;;;;;;2142278;59;19930;-70
2021/08/04 06:22:38;;;;;;;;;;;;;;;;;;2141362;59;15721;-69
2021/08/04 06:25:06;;;;;;;;;;;;;;;;;;2141427;59;14433;-70
2021/08/04 06:27:32;;;;;;;;;;;;;;;;;;2137857;59;12811;-69
2021/08/04 06:29:59;;;;;;;;;;;;;;;;;;2139014;59;15724;-70
2021/08/04 06:32:25;;;;;;;;;;;;;;;;;;2138915;59;13618;-69
2021/08/04 06:34:53;;;;;;;;;;;;;;;;;;2139823;59;14211;-69
2021/08/04 06:37:19;;;;;;;;;;;;;;;;;;2138527;67;18032;-69
2021/08/04 06:39:46;;;;;;;;;;;;;;;;;;2138877;59;14232;-69
2021/08/04 06:42:12;;;;;;;;;;;;;;;;;;2140194;67;14151;-69
2021/08/04 06:44:40;;;;;;;;;;;;;;;;;;2139596;67;14079;-70
2021/08/04 06:47:06;;;;;;;;;;;;;;;;;;2139074;67;18202;-69
2021/08/04 06:49:33;;;;;;;;;;;;;;;;;;2140790;64;15069;-69
2021/08/04 06:52:01;;;;;;;;;;;;;;;;;;2138588;59;16970;-70
2021/08/04 06:54:27;;;;;;;;;;;;;;;;;;2139676;67;17370;-70
2021/08/04 06:56:54;;;;;;;;;;;;;;;;;;2139287;67;14581;-69
2021/08/04 06:59:20;;;;;;;;;;;;;;;;;;2139172;67;14395;-70
2021/08/04 07:01:47;;;;;;;;;;;;;;;;;;2139469;59;14926;-70
2021/08/04 07:04:14;;;;;;;;;;;;;;;;;;2139960;67;14400;-69
2021/08/04 07:06:50;;;;;;;;;;;;;;;;;;2141668;67;13967;-69
2021/08/04 07:09:18;;;;;;;;;;;;;;;;;;2140693;67;15147;-70
2021/08/04 07:11:44;;;;;;;;;;;;;;;;;;2139440;59;14502;-70
2021/08/04 07:14:11;;;;;;;;;;;;;;;;;;2140268;59;14595;-69
2021/08/04 07:16:37;;;;;;;;;;;;;;;;;;2142177;63;13496;-70
2021/08/04 07:19:04;;;;;;;;;;;;;;;;;;2142408;64;14085;-70
2021/08/04 07:21:30;;;;;;;;;;;;;;;;;;2141347;64;15058;-70
2021/08/04 07:23:57;;;;;;;;;;;;;;;;;;2141211;59;14518;-71
2021/08/04 07:26:25;;;;;;;;;;;;;;;;;;2141947;67;15169;-70
2021/08/04 07:28:51;;;;;;;;;;;;;;;;;;2139102;63;14064;-70
2021/08/04 07:31:18;;;;;;;;;;;;;;;;;;2141596;67;17767;-71
2021/08/04 07:33:44;;;;;;;;;;;;;;;;;;2140258;66;15510;-70
2021/08/04 07:36:13;;;;;;;;;;;;;;;;;;2140462;66;13016;-70
2021/08/04 07:38:39;;;;;;;;;;;;;;;;;;2139543;59;13400;-71
2021/08/04 07:41:06;;;;;;;;;;;;;;;;;;2139610;67;54209;-70
2021/08/04 07:43:34;;;;;;;;;;;;;;;;;;2140026;59;14432;-70
2021/08/04 07:46:00;;;;;;;;;;;;;;;;;;2139633;59;14261;-70
2021/08/04 07:48:28;;;;;;;;;;;;;;;;;;2140365;63;14341;-70
2021/08/04 07:50:55;;;;;;;;;;;;;;;;;;2142132;66;14237;-71
2021/08/04 07:53:21;;;;;;;;;;;;;;;;;;2141438;59;15979;-69
2021/08/04 07:55:47;;;;;;;;;;;;;;;;;;2138913;59;15371;-71
2021/08/04 07:58:14;;;;;;;;;;;;;;;;;;2140751;59;17902;-71
2021/08/04 08:00:42;;;;;;;;;;;;;;;;;;2141680;59;15318;-71
2021/08/04 08:03:08;;;;;;;;;;;;;;;;;;2141374;59;14284;-71
2021/08/04 08:05:35;;;;;;;;;;;;;;;;;;2140532;67;22309;-70
2021/08/04 08:08:04;;;;;;;;;;;;;;;;;;2139058;63;15492;-70
2021/08/04 08:10:31;;;;;;;;;;;;;;;;;;2141585;59;15228;-71
2021/08/04 08:12:58;;;;;;;;;;;;;;;;;;2138778;59;15907;-70
2021/08/04 08:15:24;;;;;;;;;;;;;;;;;;2140040;59;14134;-71
2021/08/04 08:17:53;;;;;;;;;;;;;;;;;;2137483;59;14872;-71
2021/08/04 08:20:20;;;;;;;;;;;;;;;;;;2140295;67;13946;-71
2021/08/04 08:22:46;;;;;;;;;;;;;;;;;;2140377;59;13968;-70
2021/08/04 08:25:14;;;;;;;;;;;;;;;;;;2139565;59;15359;-71
2021/08/04 08:27:40;;;;;;;;;;;;;;;;;;2139774;59;15173;-70
2021/08/04 08:30:07;;;;;;;;;;;;;;;;;;2140939;67;18493;-71
2021/08/04 08:32:34;;;;;;;;;;;;;;;;;;2141332;67;17751;-71
2021/08/04 08:35:02;;;;;;;;;;;;;;;;;;2141423;66;17000;-70
2021/08/04 08:37:28;;;;;;;;;;;;;;;;;;2140327;59;15944;-70
2021/08/04 08:39:55;;;;;;;;;;;;;;;;;;2140020;63;14908;-70
2021/08/04 08:42:22;;;;;;;;;;;;;;;;;;2139959;66;13203;-70
2021/08/04 08:44:48;;;;;;;;;;;;;;;;;;2138885;59;14363;-70
2021/08/04 08:47:15;;;;;;;;;;;;;;;;;;2140094;59;15542;-69
2021/08/04 08:49:42;;;;;;;;;;;;;;;;;;2141315;59;17708;-70
2021/08/04 08:52:11;;;;;;;;;;;;;;;;;;2142799;59;14806;-70
2021/08/04 08:54:37;;;;;;;;;;;;;;;;;;2141398;59;13860;-71
2021/08/04 08:57:04;;;;;;;;;;;;;;;;;;2141546;67;14498;-69
2021/08/04 08:59:31;;;;;;;;;;;;;;;;;;2140516;67;13348;-70
2021/08/04 09:01:57;;;;;;;;;;;;;;;;;;2138935;59;14454;-70
2021/08/04 09:04:23;;;;;;;;;;;;;;;;;;2141481;64;14864;-69
2021/08/04 09:06:50;;;;;;;;;;;;;;;;;;2139528;59;14555;-70
2021/08/04 09:09:20;;;;;;;;;;;;;;;;;;2141108;59;13460;-70
2021/08/04 09:11:50;;;;;;;;;;;;;;;;;;2138923;59;17707;-70
2021/08/04 09:14:16;;;;;;;;;;;;;;;;;;2141261;67;18815;-70
2021/08/04 09:16:44;;;;;;;;;;;;;;;;;;2141553;64;13919;-70
2021/08/04 09:19:21;;;;;;;;;;;;;;;;;;2142507;59;15067;-70
2021/08/04 09:22:07;;;;;;;;;;;;;;;;;;2139223;67;20632;-70
2021/08/04 09:24:48;;;;;;;;;;;;;;;;;;2137341;59;14913;-70
2021/08/04 09:27:17;;;;;;;;;;;;;;;;;;2139270;59;14601;-70
2021/08/04 09:29:56;;;;;;;;;;;;;;;;;;2138760;59;14602;-70
2021/08/04 09:32:23;;;;;;;;;;;;;;;;;;2140670;67;13639;-71
2021/08/04 09:34:49;;;;;;;;;;;;;;;;;;2136116;58;14130;-69
2021/08/04 09:37:17;;;;;;;;;;;;;;;;;;2135534;58;13696;-71
2021/08/04 09:39:45;;;;;;;;;;;;;;;;;;2138998;59;14699;-70
2021/08/04 09:42:13;;;;;;;;;;;;;;;;;;2140918;59;14749;-70
2021/08/04 09:44:53;;;;;;;;;;;;;;;;;;2140458;67;15106;-70
2021/08/04 09:47:20;;;;;;;;;;;;;;;;;;2139185;67;14297;-70
2021/08/04 09:49:54;;;;;;;;;;;;;;;;;;2141875;66;16942;-71
2021/08/04 09:52:20;;;;;;;;;;;;;;;;;;2140878;59;15531;-70
2021/08/04 09:54:47;;;;;;;;;;;;;;;;;;2139715;67;14898;-70
2021/08/04 09:57:14;;;;;;;;;;;;;;;;;;2139746;63;14319;-70
2021/08/04 09:59:41;;;;;;;;;;;;;;;;;;2141182;59;14280;-70
2021/08/04 10:02:26;;;;;;;;;;;;;;;;;;2141007;59;13276;-70
2021/08/04 10:05:07;;;;;;;;;;;;;;;;;;2141249;63;14434;-70
2021/08/04 10:07:34;;;;;;;;;;;;;;;;;;2139040;67;14107;-70
2021/08/04 10:10:00;;;;;;;;;;;;;;;;;;2139034;59;14911;-69
2021/08/04 10:12:27;;;;;;;;;;;;;;;;;;2140458;59;15446;-70
2021/08/04 10:14:53;;;;;;;;;;;;;;;;;;2139046;67;14652;-70
2021/08/04 10:17:22;;;;;;;;;;;;;;;;;;2150020;53;15291;-69
2021/08/04 10:19:48;;;;;;;;;;;;;;;;;;2146188;58;23744;-70
2021/08/04 10:22:15;;;;;;;;;;;;;;;;;;2144176;58;20800;-70
2021/08/04 10:24:45;;;;;;;;;;;;;;;;;;2144977;58;14399;-71
2021/08/04 10:27:12;;;;;;;;;;;;;;;;;;2145880;58;15500;-70
2021/08/04 10:29:40;;;;;;;;;;;;;;;;;;2145612;58;14703;-70
2021/08/04 10:32:06;;;;;;;;;;;;;;;;;;2146119;58;15070;-71
2021/08/04 10:34:35;;;;;;;;;;;;;;;;;;2145510;58;19100;-70
2021/08/04 10:37:02;;;;;;;;;;;;;;;;;;2147562;58;18906;-71
2021/08/04 10:39:29;;;;;;;;;;;;;;;;;;2149128;66;15668;-70
2021/08/04 10:42:03;;;;;;;;;;;;;;;;;;2148235;66;17260;-71
2021/08/04 10:44:29;;;;;;;;;;;;;;;;;;2148014;58;16042;-72
2021/08/04 10:46:56;;;;;;;;;;;;;;;;;;2146221;66;13731;-71
2021/08/04 10:49:24;;;;;;;;;;;;;;;;;;2148325;58;13642;-71
2021/08/04 10:52:06;;;;;;;;;;;;;;;;;;2145907;58;14049;-71
2021/08/04 10:54:32;;;;;;;;;;;;;;;;;;2149649;58;15948;-71
2021/08/04 10:57:06;;;;;;;;;;;;;;;;;;2147328;58;17275;-71
2021/08/04 10:59:32;;;;;;;;;;;;;;;;;;2147719;66;13478;-70
2021/08/04 11:02:14;;;;;;;;;;;;;;;;;;2147419;58;18408;-71
2021/08/04 11:04:53;;;;;;;;;;;;;;;;;;2147363;58;15972;-71
2021/08/04 11:07:22;;;;;;;;;;;;;;;;;;2142353;59;14152;-70
2021/08/04 11:09:56;;;;;;;;;;;;;;;;;;2148176;58;14349;-70
2021/08/04 11:12:40;;;;;;;;;;;;;;;;;;2149247;58;20618;-71
2021/08/04 11:15:18;;;;;;;;;;;;;;;;;;2147110;66;14519;-71
2021/08/04 11:17:56;;;;;;;;;;;;;;;;;;2147965;58;13880;-71
2021/08/04 11:20:23;;;;;;;;;;;;;;;;;;2148047;66;14418;-71
2021/08/04 11:22:53;;;;;;;;;;;;;;;;;;2146225;59;20906;-71
2021/08/04 11:25:27;;;;;;;;;;;;;;;;;;2145882;58;16344;-71
2021/08/04 11:28:04;;;;;;;;;;;;;;;;;;2145077;59;14696;-71
2021/08/04 11:30:32;;;;;;;;;;;;;;;;;;2146321;58;14362;-72
2021/08/04 11:33:13;;;;;;;;;;;;;;;;;;2145711;66;16141;-73
2021/08/04 11:35:40;;;;;;;;;;;;;;;;;;2145457;58;18267;-71
2021/08/04 11:38:08;;;;;;;;;;;;;;;;;;2147599;59;13164;-71
2021/08/04 11:40:34;;;;;;;;;;;;;;;;;;2146644;63;15197;-70
2021/08/04 11:43:01;;;;;;;;;;;;;;;;;;2145622;58;16344;-71
2021/08/04 11:45:28;;;;;;;;;;;;;;;;;;2147513;58;19561;-69
2021/08/04 11:47:55;;;;;;;;;;;;;;;;;;2146572;66;13514;-71
2021/08/04 11:50:21;;;;;;;;;;;;;;;;;;2146387;66;19769;-69
2021/08/04 11:52:48;;;;;;;;;;;;;;;;;;2147199;58;21759;-71
2021/08/04 11:55:15;;;;;;;;;;;;;;;;;;2146803;66;16840;-71
2021/08/04 11:57:43;;;;;;;;;;;;;;;;;;2146450;58;15332;-71
2021/08/04 12:00:11;;;;;;;;;;;;;;;;;;2146819;58;13057;-69
2021/08/04 12:02:38;;;;;;;;;;;;;;;;;;2147248;58;15955;-70
2021/08/04 12:05:06;;;;;;;;;;;;;;;;;;2145739;58;15060;-70
2021/08/04 12:07:34;;;;;;;;;;;;;;;;;;2147062;58;13552;-70
2021/08/04 12:10:02;;;;;;;;;;;;;;;;;;2146395;58;16490;-71
2021/08/04 12:12:31;;;;;;;;;;;;;;;;;;2146542;58;14575;-70
2021/08/04 12:14:59;;;;;;;;;;;;;;;;;;2147309;58;15083;-71
2021/08/04 12:17:27;;;;;;;;;;;;;;;;;;2146770;58;20458;-71
2021/08/04 12:19:55;;;;;;;;;;;;;;;;;;2145006;66;16055;-71
2021/08/04 12:22:23;;;;;;;;;;;;;;;;;;2147008;59;18277;-71
2021/08/04 12:24:52;;;;;;;;;;;;;;;;;;2147062;58;17233;-71
2021/08/04 12:27:40;;;;;;;;;;;;;;;;;;2146254;63;13733;-70
2021/08/04 12:30:08;;;;;;;;;;;;;;;;;;2146985;58;16533;-70
2021/08/04 12:32:48;;;;;;;;;;;;;;;;;;2146715;58;13666;-70
2021/08/04 12:35:15;;;;;;;;;;;;;;;;;;2146627;58;15319;-71
2021/08/04 12:37:42;;;;;;;;;;;;;;;;;;2147890;58;16409;-70
2021/08/04 12:40:10;;;;;;;;;;;;;;;;;;2148255;66;16997;-71
2021/08/04 12:42:37;;;;;;;;;;;;;;;;;;2145827;63;18755;-71
2021/08/04 12:45:25;;;;;;;;;;;;;;;;;;2147587;58;12959;-70
2021/08/04 12:47:54;;;;;;;;;;;;;;;;;;2145104;58;15524;-69
2021/08/04 12:50:20;;;;;;;;;;;;;;;;;;2148700;58;14539;-70
2021/08/04 12:52:47;;;;;;;;;;;;;;;;;;2146696;58;14366;-71
2021/08/04 12:55:16;;;;;;;;;;;;;;;;;;2147144;66;16991;-70
2021/08/04 12:57:43;;;;;;;;;;;;;;;;;;2146153;58;14486;-70
2021/08/04 13:00:25;;;;;;;;;;;;;;;;;;2147245;66;14063;-71
2021/08/04 13:02:53;;;;;;;;;;;;;;;;;;2145428;58;18967;-70
2021/08/04 13:05:20;;;;;;;;;;;;;;;;;;2145167;58;15301;-69
2021/08/04 13:07:46;;;;;;;;;;;;;;;;;;2147255;66;17025;-72
2021/08/04 13:10:14;;;;;;;;;;;;;;;;;;2147401;66;15686;-71
2021/08/04 13:12:41;;;;;;;;;;;;;;;;;;2146866;59;18993;-72
2021/08/04 13:15:10;;;;;;;;;;;;;;;;;;2146986;58;13459;-71
2021/08/04 13:17:37;;;;;;;;;;;;;;;;;;2147084;58;13716;-73
2021/08/04 13:20:19;;;;;;;;;;;;;;;;;;2146201;66;14329;-71
2021/08/04 13:22:51;;;;;;;;;;;;;;;;;;2146394;58;14931;-71
2021/08/04 13:25:17;;;;;;;;;;;;;;;;;;2145639;58;14863;-70
2021/08/04 13:27:53;;;;;;;;;;;;;;;;;;2147111;59;16235;-70
2021/08/04 13:30:21;;;;;;;;;;;;;;;;;;2147656;58;16984;-71
2021/08/04 13:32:47;;;;;;;;;;;;;;;;;;2147795;66;13961;-69
2021/08/04 13:35:14;;;;;;;;;;;;;;;;;;2145363;58;14958;-70
2021/08/04 13:37:40;;;;;;;;;;;;;;;;;;2145852;59;25014;-71
2021/08/04 13:40:10;;;;;;;;;;;;;;;;;;2148952;58;14511;-71
2021/08/04 13:42:37;;;;;;;;;;;;;;;;;;2147724;59;17163;-71
2021/08/04 13:45:04;;;;;;;;;;;;;;;;;;2146280;58;16205;-71
2021/08/04 13:47:30;;;;;;;;;;;;;;;;;;2146896;58;13898;-69
2021/08/04 13:50:01;;;;;;;;;;;;;;;;;;2147325;58;16839;-71
2021/08/04 13:52:29;;;;;;;;;;;;;;;;;;2147392;59;18646;-69
2021/08/04 13:54:56;;;;;;;;;;;;;;;;;;2144946;59;13467;-70
2021/08/04 13:57:25;;;;;;;;;;;;;;;;;;2145126;58;13672;-71
2021/08/04 13:59:51;;;;;;;;;;;;;;;;;;2146948;58;14728;-72
2021/08/04 14:02:18;;;;;;;;;;;;;;;;;;2147252;58;14263;-71
2021/08/04 14:04:44;;;;;;;;;;;;;;;;;;2145753;66;14186;-74
2021/08/04 14:07:11;;;;;;;;;;;;;;;;;;2146740;58;14710;-73
2021/08/04 14:09:37;;;;;;;;;;;;;;;;;;2145762;66;15019;-71
2021/08/04 14:12:04;;;;;;;;;;;;;;;;;;2145307;59;15826;-69
2021/08/04 14:14:32;;;;;;;;;;;;;;;;;;2146609;58;14380;-74
2021/08/04 14:16:58;;;;;;;;;;;;;;;;;;2146677;58;18964;-73
2021/08/04 14:19:25;;;;;;;;;;;;;;;;;;2146380;59;16644;-74
2021/08/04 14:21:51;;;;;;;;;;;;;;;;;;2145983;58;15006;-74
2021/08/04 14:24:18;;;;;;;;;;;;;;;;;;2147196;58;14298;-71
2021/08/04 14:26:44;;;;;;;;;;;;;;;;;;2142328;58;15744;-70
2021/08/04 14:29:11;;;;;;;;;;;;;;;;;;2146743;66;15167;-75
2021/08/04 14:31:39;;;;;;;;;;;;;;;;;;2147787;58;18711;-75
2021/08/04 14:34:06;;;;;;;;;;;;;;;;;;2145888;59;13577;-73
2021/08/04 14:36:32;;;;;;;;;;;;;;;;;;2146204;58;13784;-73
2021/08/04 14:38:59;;;;;;;;;;;;;;;;;;2146871;66;16622;-71
2021/08/04 14:41:25;;;;;;;;;;;;;;;;;;2141798;59;14154;-77
2021/08/04 14:43:52;;;;;;;;;;;;;;;;;;2145912;58;14048;-74
2021/08/04 14:46:18;;;;;;;;;;;;;;;;;;2147151;58;13721;-72
2021/08/04 14:48:46;;;;;;;;;;;;;;;;;;2146883;66;14343;-72
2021/08/04 14:51:13;;;;;;;;;;;;;;;;;;2146311;66;18889;-71
2021/08/04 14:53:39;;;;;;;;;;;;;;;;;;2147416;58;16957;-71
2021/08/04 14:56:07;;;;;;;;;;;;;;;;;;2147797;58;14895;-70
2021/08/04 14:58:33;;;;;;;;;;;;;;;;;;2149327;66;15165;-71
2021/08/04 15:01:00;;;;;;;;;;;;;;;;;;2146998;58;13724;-70
2021/08/04 15:03:27;;;;;;;;;;;;;;;;;;2147521;58;14773;-72
2021/08/04 15:05:55;;;;;;;;;;;;;;;;;;2146196;58;15147;-72
2021/08/04 15:08:21;;;;;;;;;;;;;;;;;;2149553;66;15332;-71
2021/08/04 15:10:52;;;;;;;;;;;;;;;;;;2147439;58;14512;-72
2021/08/04 15:13:18;;;;;;;;;;;;;;;;;;2145387;66;15649;-74
2021/08/04 15:15:45;;;;;;;;;;;;;;;;;;2147300;58;15182;-75
2021/08/04 15:18:11;;;;;;;;;;;;;;;;;;2144158;58;17908;-72
2021/08/04 15:20:38;;;;;;;;;;;;;;;;;;2149230;66;13943;-72
2021/08/04 15:23:06;;;;;;;;;;;;;;;;;;2148060;66;47758;-70
2021/08/04 15:25:33;;;;;;;;;;;;;;;;;;2148133;59;13662;-73
2021/08/04 15:28:00;;;;;;;;;;;;;;;;;;2147962;58;14907;-74
2021/08/04 15:30:27;;;;;;;;;;;;;;;;;;2148529;59;14619;-73
2021/08/04 15:32:54;;;;;;;;;;;;;;;;;;2146893;58;13782;-73
2021/08/04 15:35:20;;;;;;;;;;;;;;;;;;2146026;66;21569;-72
2021/08/04 15:37:47;;;;;;;;;;;;;;;;;;2145266;58;15109;-70
2021/08/04 15:40:15;;;;;;;;;;;;;;;;;;2147820;66;19090;-70
2021/08/04 15:42:42;;;;;;;;;;;;;;;;;;2147040;64;16690;-74
2021/08/04 15:45:08;;;;;;;;;;;;;;;;;;2146490;58;15524;-74
2021/08/04 15:47:35;;;;;;;;;;;;;;;;;;2147564;58;14538;-70
2021/08/04 15:50:02;;;;;;;;;;;;;;;;;;2147295;63;14480;-74
2021/08/04 15:52:29;;;;;;;;;;;;;;;;;;2148827;58;13131;-71
2021/08/04 15:54:55;;;;;;;;;;;;;;;;;;2148583;58;15225;-74
2021/08/04 15:57:23;;;;;;;;;;;;;;;;;;2144654;66;20236;-71
2021/08/04 15:59:49;;;;;;;;;;;;;;;;;;2144806;58;14136;-70
2021/08/04 16:02:16;;;;;;;;;;;;;;;;;;2146891;58;15113;-74
2021/08/04 16:04:42;;;;;;;;;;;;;;;;;;2147358;66;14031;-74
2021/08/04 16:07:09;;;;;;;;;;;;;;;;;;2146448;58;14013;-73
2021/08/04 16:09:35;;;;;;;;;;;;;;;;;;2146925;58;17036;-73
2021/08/04 16:12:02;;;;;;;;;;;;;;;;;;2144231;58;17043;-71
2021/08/04 16:14:30;;;;;;;;;;;;;;;;;;2142807;66;15739;-72
2021/08/04 16:16:56;;;;;;;;;;;;;;;;;;2146697;58;17720;-72
2021/08/04 16:19:25;;;;;;;;;;;;;;;;;;2145695;58;17935;-71
2021/08/04 16:21:52;;;;;;;;;;;;;;;;;;2145017;59;13548;-70
2021/08/04 16:24:18;;;;;;;;;;;;;;;;;;2146993;58;14190;-72
2021/08/04 16:26:45;;;;;;;;;;;;;;;;;;2146220;58;17251;-72
2021/08/04 16:29:11;;;;;;;;;;;;;;;;;;2145068;59;15156;-71
2021/08/04 16:31:40;;;;;;;;;;;;;;;;;;2144978;58;13981;-70
2021/08/04 16:34:06;;;;;;;;;;;;;;;;;;2144224;58;13598;-72
2021/08/04 16:36:33;;;;;;;;;;;;;;;;;;2145562;59;14114;-70
2021/08/04 16:38:59;;;;;;;;;;;;;;;;;;2144875;59;16718;-72
2021/08/04 16:41:27;;;;;;;;;;;;;;;;;;2144539;66;14109;-70
2021/08/04 16:43:54;;;;;;;;;;;;;;;;;;2144436;58;16274;-70
2021/08/04 16:46:20;;;;;;;;;;;;;;;;;;2146053;58;16769;-71
2021/08/04 16:48:48;;;;;;;;;;;;;;;;;;2145967;59;14118;-70
2021/08/04 16:51:15;;;;;;;;;;;;;;;;;;2144445;58;14762;-70